sensor_id;sensor_type;location;lat;lon;timestamp;temperature;humidity
23869;DHT22;12115;47.128;15.422;2023-03-14T00:01:31;6.70;99.90
23869;DHT22;12115;47.128;15.422;2023-03-14T00:03:59;6.70;99.90
23869;DHT22;12115;47.128;15.422;2023-03-14T00:06:26;6.80;99.90
23869;DHT22;12115;47.128;15.422;2023-03-14T00:08:54;6.80;99.90
23869;DHT22;12115;47.128;15.422;2023-03-14T00:11:21;6.80;99.90
23869;DHT22;12115;47.128;15.422;2023-03-14T00:13:52;6.80;99.90
23869;DHT22;12115;47.128;15.422;2023-03-14T00:16:23;6.80;99.90
23869;DHT22;12115;47.128;15.422;2023-03-14T00:18:51;6.90;99.90
23869;DHT22;12115;47.128;15.422;2023-03-14T00:21:19;6.90;99.90
23869;DHT22;12115;47.128;15.422;2023-03-14T00:23:46;7.00;99.90
23869;DHT22;12115;47.128;15.422;2023-03-14T00:26:16;7.00;99.90
23869;DHT22;12115;47.128;15.422;2023-03-14T00:28:43;7.00;99.90
23869;DHT22;12115;47.128;15.422;2023-03-14T00:31:13;7.00;99.90
23869;DHT22;12115;47.128;15.422;2023-03-14T00:33:42;7.00;99.90
23869;DHT22;12115;47.128;15.422;2023-03-14T00:36:12;6.90;99.90
23869;DHT22;12115;47.128;15.422;2023-03-14T00:38:40;6.90;99.90
23869;DHT22;12115;47.128;15.422;2023-03-14T00:41:13;6.90;99.90
23869;DHT22;12115;47.128;15.422;2023-03-14T00:43:40;6.90;99.90
23869;DHT22;12115;47.128;15.422;2023-03-14T00:46:09;6.90;99.90
23869;DHT22;12115;47.128;15.422;2023-03-14T00:48:37;6.90;99.90
23869;DHT22;12115;47.128;15.422;2023-03-14T00:51:06;6.90;99.90
23869;DHT22;12115;47.128;15.422;2023-03-14T00:53:38;6.90;99.90
23869;DHT22;12115;47.128;15.422;2023-03-14T00:56:08;6.80;99.90
23869;DHT22;12115;47.128;15.422;2023-03-14T00:58:35;6.80;99.90
23869;DHT22;12115;47.128;15.422;2023-03-14T01:01:14;6.80;99.90
23869;DHT22;12115;47.128;15.422;2023-03-14T01:03:42;6.80;99.90
23869;DHT22;12115;47.128;15.422;2023-03-14T01:06:11;6.80;99.90
23869;DHT22;12115;47.128;15.422;2023-03-14T01:08:38;6.80;99.90
23869;DHT22;12115;47.128;15.422;2023-03-14T01:11:08;6.80;99.90
23869;DHT22;12115;47.128;15.422;2023-03-14T01:13:36;6.80;99.90
23869;DHT22;12115;47.128;15.422;2023-03-14T01:16:05;6.80;99.90
23869;DHT22;12115;47.128;15.422;2023-03-14T01:18:37;6.70;99.90
23869;DHT22;12115;47.128;15.422;2023-03-14T01:21:20;6.70;99.90
23869;DHT22;12115;47.128;15.422;2023-03-14T01:23:48;6.70;99.90
23869;DHT22;12115;47.128;15.422;2023-03-14T01:26:18;6.70;99.90
23869;DHT22;12115;47.128;15.422;2023-03-14T01:28:50;6.60;99.90
23869;DHT22;12115;47.128;15.422;2023-03-14T01:31:18;6.60;99.90
23869;DHT22;12115;47.128;15.422;2023-03-14T01:33:47;6.60;99.90
23869;DHT22;12115;47.128;15.422;2023-03-14T01:36:15;6.60;99.90
23869;DHT22;12115;47.128;15.422;2023-03-14T01:38:43;6.60;99.90
23869;DHT22;12115;47.128;15.422;2023-03-14T01:41:20;6.60;99.90
23869;DHT22;12115;47.128;15.422;2023-03-14T01:44:02;6.60;99.90
23869;DHT22;12115;47.128;15.422;2023-03-14T01:46:48;6.50;99.90
23869;DHT22;12115;47.128;15.422;2023-03-14T01:49:20;6.50;99.90
23869;DHT22;12115;47.128;15.422;2023-03-14T01:52:44;6.50;99.90
23869;DHT22;12115;47.128;15.422;2023-03-14T01:55:22;6.50;99.90
23869;DHT22;12115;47.128;15.422;2023-03-14T01:57:57;6.50;99.90
23869;DHT22;12115;47.128;15.422;2023-03-14T02:00:26;6.40;99.90
23869;DHT22;12115;47.128;15.422;2023-03-14T02:03:00;6.40;99.90
23869;DHT22;12115;47.128;15.422;2023-03-14T02:05:37;6.40;99.90
23869;DHT22;12115;47.128;15.422;2023-03-14T02:08:12;6.30;99.90
23869;DHT22;12115;47.128;15.422;2023-03-14T02:10:51;6.30;99.90
23869;DHT22;12115;47.128;15.422;2023-03-14T02:13:24;6.20;99.90
23869;DHT22;12115;47.128;15.422;2023-03-14T02:16:27;6.20;99.90
23869;DHT22;12115;47.128;15.422;2023-03-14T02:22:19;6.20;99.90
23869;DHT22;12115;47.128;15.422;2023-03-14T02:28:00;6.10;99.90
23869;DHT22;12115;47.128;15.422;2023-03-14T02:30:30;6.10;99.90
23869;DHT22;12115;47.128;15.422;2023-03-14T02:33:01;6.10;99.90
23869;DHT22;12115;47.128;15.422;2023-03-14T02:35:50;6.10;99.90
23869;DHT22;12115;47.128;15.422;2023-03-14T02:38:47;6.10;99.90
23869;DHT22;12115;47.128;15.422;2023-03-14T02:41:18;5.90;99.90
23869;DHT22;12115;47.128;15.422;2023-03-14T02:43:56;5.90;99.90
23869;DHT22;12115;47.128;15.422;2023-03-14T02:46:24;6.00;99.90
23869;DHT22;12115;47.128;15.422;2023-03-14T02:48:53;5.90;99.90
23869;DHT22;12115;47.128;15.422;2023-03-14T02:51:22;5.90;99.90
23869;DHT22;12115;47.128;15.422;2023-03-14T02:53:50;5.90;99.90
23869;DHT22;12115;47.128;15.422;2023-03-14T02:56:22;5.90;99.90
23869;DHT22;12115;47.128;15.422;2023-03-14T02:58:50;5.90;99.90
23869;DHT22;12115;47.128;15.422;2023-03-14T03:01:56;5.90;99.90
23869;DHT22;12115;47.128;15.422;2023-03-14T03:04:25;5.90;99.90
23869;DHT22;12115;47.128;15.422;2023-03-14T03:06:52;5.90;99.90
23869;DHT22;12115;47.128;15.422;2023-03-14T03:09:19;5.80;99.90
23869;DHT22;12115;47.128;15.422;2023-03-14T03:11:47;5.90;99.90
23869;DHT22;12115;47.128;15.422;2023-03-14T03:14:19;5.90;99.90
23869;DHT22;12115;47.128;15.422;2023-03-14T03:16:46;5.90;99.90
23869;DHT22;12115;47.128;15.422;2023-03-14T03:19:14;5.80;99.90
23869;DHT22;12115;47.128;15.422;2023-03-14T03:21:41;5.80;99.90
23869;DHT22;12115;47.128;15.422;2023-03-14T03:24:11;5.80;99.90
23869;DHT22;12115;47.128;15.422;2023-03-14T03:26:38;5.80;99.90
23869;DHT22;12115;47.128;15.422;2023-03-14T03:29:08;5.80;99.90
23869;DHT22;12115;47.128;15.422;2023-03-14T03:31:37;5.80;99.90
23869;DHT22;12115;47.128;15.422;2023-03-14T03:34:05;5.70;99.90
23869;DHT22;12115;47.128;15.422;2023-03-14T03:36:32;5.70;99.90
23869;DHT22;12115;47.128;15.422;2023-03-14T03:39:00;5.60;99.90
23869;DHT22;12115;47.128;15.422;2023-03-14T03:41:27;5.60;99.90
23869;DHT22;12115;47.128;15.422;2023-03-14T03:43:55;5.60;99.90
23869;DHT22;12115;47.128;15.422;2023-03-14T03:46:23;5.60;99.90
23869;DHT22;12115;47.128;15.422;2023-03-14T03:48:55;5.60;99.90
23869;DHT22;12115;47.128;15.422;2023-03-14T03:51:22;5.50;99.90
23869;DHT22;12115;47.128;15.422;2023-03-14T03:53:52;5.50;99.90
23869;DHT22;12115;47.128;15.422;2023-03-14T03:56:27;5.50;99.90
23869;DHT22;12115;47.128;15.422;2023-03-14T03:58:54;5.50;99.90
23869;DHT22;12115;47.128;15.422;2023-03-14T04:01:23;5.50;99.90
23869;DHT22;12115;47.128;15.422;2023-03-14T04:03:53;5.40;99.90
23869;DHT22;12115;47.128;15.422;2023-03-14T04:06:21;5.40;99.90
23869;DHT22;12115;47.128;15.422;2023-03-14T04:08:50;5.40;99.90
23869;DHT22;12115;47.128;15.422;2023-03-14T04:11:34;5.30;99.90
23869;DHT22;12115;47.128;15.422;2023-03-14T04:14:20;5.40;99.90
23869;DHT22;12115;47.128;15.422;2023-03-14T04:16:53;5.40;99.90
23869;DHT22;12115;47.128;15.422;2023-03-14T04:19:20;5.40;99.90
23869;DHT22;12115;47.128;15.422;2023-03-14T04:21:49;5.40;99.90
23869;DHT22;12115;47.128;15.422;2023-03-14T04:24:18;5.30;99.90
23869;DHT22;12115;47.128;15.422;2023-03-14T04:26:48;5.30;99.90
23869;DHT22;12115;47.128;15.422;2023-03-14T04:29:16;5.30;99.90
23869;DHT22;12115;47.128;15.422;2023-03-14T04:31:45;5.30;99.90
23869;DHT22;12115;47.128;15.422;2023-03-14T04:34:12;5.40;99.90
23869;DHT22;12115;47.128;15.422;2023-03-14T04:36:46;5.40;99.90
23869;DHT22;12115;47.128;15.422;2023-03-14T04:39:18;5.40;99.90
23869;DHT22;12115;47.128;15.422;2023-03-14T04:41:55;5.40;99.90
23869;DHT22;12115;47.128;15.422;2023-03-14T04:44:23;5.40;99.90
23869;DHT22;12115;47.128;15.422;2023-03-14T04:46:52;5.40;99.90
23869;DHT22;12115;47.128;15.422;2023-03-14T04:49:20;5.40;99.90
23869;DHT22;12115;47.128;15.422;2023-03-14T04:51:48;5.40;99.90
23869;DHT22;12115;47.128;15.422;2023-03-14T04:54:17;5.40;99.90
23869;DHT22;12115;47.128;15.422;2023-03-14T04:56:49;5.40;99.90
23869;DHT22;12115;47.128;15.422;2023-03-14T04:59:16;5.40;99.90
23869;DHT22;12115;47.128;15.422;2023-03-14T05:01:44;5.40;99.90
23869;DHT22;12115;47.128;15.422;2023-03-14T05:04:38;5.40;99.90
23869;DHT22;12115;47.128;15.422;2023-03-14T05:07:37;5.40;99.90
23869;DHT22;12115;47.128;15.422;2023-03-14T05:10:31;5.50;99.90
23869;DHT22;12115;47.128;15.422;2023-03-14T05:13:12;5.50;99.90
23869;DHT22;12115;47.128;15.422;2023-03-14T05:15:50;5.50;99.90
23869;DHT22;12115;47.128;15.422;2023-03-14T05:18:37;5.60;99.90
23869;DHT22;12115;47.128;15.422;2023-03-14T05:21:38;5.60;99.90
23869;DHT22;12115;47.128;15.422;2023-03-14T05:24:29;5.60;99.90
23869;DHT22;12115;47.128;15.422;2023-03-14T05:27:00;5.70;99.90
23869;DHT22;12115;47.128;15.422;2023-03-14T05:29:47;5.80;99.90
23869;DHT22;12115;47.128;15.422;2023-03-14T05:32:41;5.80;99.90
23869;DHT22;12115;47.128;15.422;2023-03-14T05:35:08;5.80;99.90
23869;DHT22;12115;47.128;15.422;2023-03-14T05:37:59;5.80;99.90
23869;DHT22;12115;47.128;15.422;2023-03-14T05:41:05;5.90;99.90
23869;DHT22;12115;47.128;15.422;2023-03-14T05:44:02;5.90;99.90
23869;DHT22;12115;47.128;15.422;2023-03-14T05:46:57;6.00;99.90
23869;DHT22;12115;47.128;15.422;2023-03-14T05:49:31;6.00;99.90
23869;DHT22;12115;47.128;15.422;2023-03-14T05:51:58;6.00;99.90
23869;DHT22;12115;47.128;15.422;2023-03-14T05:54:25;6.10;99.90
23869;DHT22;12115;47.128;15.422;2023-03-14T05:57:16;6.10;99.90
23869;DHT22;12115;47.128;15.422;2023-03-14T06:00:03;6.10;99.90
23869;DHT22;12115;47.128;15.422;2023-03-14T06:02:47;6.20;99.90
23869;DHT22;12115;47.128;15.422;2023-03-14T06:05:22;6.20;99.90
23869;DHT22;12115;47.128;15.422;2023-03-14T06:07:55;6.30;99.90
23869;DHT22;12115;47.128;15.422;2023-03-14T06:10:23;6.30;99.90
23869;DHT22;12115;47.128;15.422;2023-03-14T06:12:51;6.40;99.90
23869;DHT22;12115;47.128;15.422;2023-03-14T06:15:19;6.40;99.90
23869;DHT22;12115;47.128;15.422;2023-03-14T06:17:49;6.50;99.90
23869;DHT22;12115;47.128;15.422;2023-03-14T06:20:17;6.50;99.90
23869;DHT22;12115;47.128;15.422;2023-03-14T06:22:45;6.60;99.90
23869;DHT22;12115;47.128;15.422;2023-03-14T06:25:13;6.70;99.90
23869;DHT22;12115;47.128;15.422;2023-03-14T06:27:44;6.70;99.90
23869;DHT22;12115;47.128;15.422;2023-03-14T06:30:12;6.70;99.90
23869;DHT22;12115;47.128;15.422;2023-03-14T06:32:40;6.80;99.90
23869;DHT22;12115;47.128;15.422;2023-03-14T06:35:12;6.90;99.90
23869;DHT22;12115;47.128;15.422;2023-03-14T06:37:42;7.00;99.90
23869;DHT22;12115;47.128;15.422;2023-03-14T06:40:11;7.10;99.90
23869;DHT22;12115;47.128;15.422;2023-03-14T06:42:49;7.10;99.90
23869;DHT22;12115;47.128;15.422;2023-03-14T06:45:20;7.20;99.90
23869;DHT22;12115;47.128;15.422;2023-03-14T06:47:47;7.30;99.90
23869;DHT22;12115;47.128;15.422;2023-03-14T06:50:16;7.40;99.90
23869;DHT22;12115;47.128;15.422;2023-03-14T06:52:45;7.80;99.90
23869;DHT22;12115;47.128;15.422;2023-03-14T06:55:20;7.80;99.90
23869;DHT22;12115;47.128;15.422;2023-03-14T06:57:49;7.80;99.90
23869;DHT22;12115;47.128;15.422;2023-03-14T07:00:17;7.80;99.90
23869;DHT22;12115;47.128;15.422;2023-03-14T07:02:54;7.90;99.90
23869;DHT22;12115;47.128;15.422;2023-03-14T07:05:27;8.00;99.90
23869;DHT22;12115;47.128;15.422;2023-03-14T07:07:56;8.30;99.90
23869;DHT22;12115;47.128;15.422;2023-03-14T07:10:23;8.80;99.90
23869;DHT22;12115;47.128;15.422;2023-03-14T07:12:51;9.10;99.90
23869;DHT22;12115;47.128;15.422;2023-03-14T07:15:25;9.10;99.90
23869;DHT22;12115;47.128;15.422;2023-03-14T07:21:23;9.60;99.90
23869;DHT22;12115;47.128;15.422;2023-03-14T07:24:02;10.00;99.90
23869;DHT22;12115;47.128;15.422;2023-03-14T07:26:32;10.30;99.90
23869;DHT22;12115;47.128;15.422;2023-03-14T07:29:11;10.70;99.90
23869;DHT22;12115;47.128;15.422;2023-03-14T07:31:40;11.00;99.90
23869;DHT22;12115;47.128;15.422;2023-03-14T07:34:08;11.00;99.90
23869;DHT22;12115;47.128;15.422;2023-03-14T07:36:48;10.90;99.90
23869;DHT22;12115;47.128;15.422;2023-03-14T07:39:16;11.10;99.90
23869;DHT22;12115;47.128;15.422;2023-03-14T07:42:02;11.20;99.90
23869;DHT22;12115;47.128;15.422;2023-03-14T07:44:47;11.20;99.90
23869;DHT22;12115;47.128;15.422;2023-03-14T07:47:15;11.20;99.90
23869;DHT22;12115;47.128;15.422;2023-03-14T07:49:42;11.20;99.90
23869;DHT22;12115;47.128;15.422;2023-03-14T07:52:13;11.30;99.90
23869;DHT22;12115;47.128;15.422;2023-03-14T07:54:49;11.40;99.90
23869;DHT22;12115;47.128;15.422;2023-03-14T07:57:17;11.70;99.90
23869;DHT22;12115;47.128;15.422;2023-03-14T07:59:44;11.80;99.90
23869;DHT22;12115;47.128;15.422;2023-03-14T08:02:37;11.90;99.90
23869;DHT22;12115;47.128;15.422;2023-03-14T08:05:11;12.20;99.90
23869;DHT22;12115;47.128;15.422;2023-03-14T08:07:38;12.30;99.90
23869;DHT22;12115;47.128;15.422;2023-03-14T08:10:15;12.50;99.90
23869;DHT22;12115;47.128;15.422;2023-03-14T08:12:56;12.60;99.90
23869;DHT22;12115;47.128;15.422;2023-03-14T08:15:24;12.60;99.90
23869;DHT22;12115;47.128;15.422;2023-03-14T08:17:55;12.90;99.90
23869;DHT22;12115;47.128;15.422;2023-03-14T08:20:26;13.20;99.90
23869;DHT22;12115;47.128;15.422;2023-03-14T08:23:01;13.40;99.90
23869;DHT22;12115;47.128;15.422;2023-03-14T08:25:28;13.70;99.90
23869;DHT22;12115;47.128;15.422;2023-03-14T08:27:56;13.90;99.90
23869;DHT22;12115;47.128;15.422;2023-03-14T08:30:24;13.90;99.90
23869;DHT22;12115;47.128;15.422;2023-03-14T08:32:56;14.00;99.90
23869;DHT22;12115;47.128;15.422;2023-03-14T08:35:25;14.20;99.90
23869;DHT22;12115;47.128;15.422;2023-03-14T08:37:53;14.10;99.90
23869;DHT22;12115;47.128;15.422;2023-03-14T08:40:20;13.80;99.90
23869;DHT22;12115;47.128;15.422;2023-03-14T08:42:48;13.70;99.90
23869;DHT22;12115;47.128;15.422;2023-03-14T08:45:16;13.70;99.90
23869;DHT22;12115;47.128;15.422;2023-03-14T08:47:44;13.60;99.90
23869;DHT22;12115;47.128;15.422;2023-03-14T08:50:16;13.70;99.90
23869;DHT22;12115;47.128;15.422;2023-03-14T08:53:19;13.70;99.90
23869;DHT22;12115;47.128;15.422;2023-03-14T08:55:53;13.80;99.90
23869;DHT22;12115;47.128;15.422;2023-03-14T08:58:21;13.90;99.90
23869;DHT22;12115;47.128;15.422;2023-03-14T09:00:50;13.90;99.90
23869;DHT22;12115;47.128;15.422;2023-03-14T09:03:18;14.00;99.90
23869;DHT22;12115;47.128;15.422;2023-03-14T09:05:45;14.00;99.90
23869;DHT22;12115;47.128;15.422;2023-03-14T09:08:14;14.10;99.90
23869;DHT22;12115;47.128;15.422;2023-03-14T09:13:59;15.50;99.90
23869;DHT22;12115;47.128;15.422;2023-03-14T09:16:36;15.80;99.90
23869;DHT22;12115;47.128;15.422;2023-03-14T09:19:03;15.80;99.90
23869;DHT22;12115;47.128;15.422;2023-03-14T09:21:30;16.70;99.90
23869;DHT22;12115;47.128;15.422;2023-03-14T09:23:58;17.10;99.90
23869;DHT22;12115;47.128;15.422;2023-03-14T09:26:25;16.90;99.90
23869;DHT22;12115;47.128;15.422;2023-03-14T09:28:52;16.90;99.90
23869;DHT22;12115;47.128;15.422;2023-03-14T09:31:48;16.60;99.90
23869;DHT22;12115;47.128;15.422;2023-03-14T09:34:16;16.20;99.90
23869;DHT22;12115;47.128;15.422;2023-03-14T09:36:43;16.00;99.90
23869;DHT22;12115;47.128;15.422;2023-03-14T09:39:11;15.80;99.90
23869;DHT22;12115;47.128;15.422;2023-03-14T09:41:48;15.50;99.90
23869;DHT22;12115;47.128;15.422;2023-03-14T09:44:20;15.40;99.90
23869;DHT22;12115;47.128;15.422;2023-03-14T09:46:51;15.30;99.90
23869;DHT22;12115;47.128;15.422;2023-03-14T09:49:35;15.30;99.90
23869;DHT22;12115;47.128;15.422;2023-03-14T09:52:21;15.40;99.90
23869;DHT22;12115;47.128;15.422;2023-03-14T09:58:09;15.10;99.90
23869;DHT22;12115;47.128;15.422;2023-03-14T10:00:37;14.90;99.90
23869;DHT22;12115;47.128;15.422;2023-03-14T10:05:50;14.60;99.90
23869;DHT22;12115;47.128;15.422;2023-03-14T10:08:43;14.50;99.90
23869;DHT22;12115;47.128;15.422;2023-03-14T10:11:20;14.40;99.90
23869;DHT22;12115;47.128;15.422;2023-03-14T10:14:17;14.40;99.90
23869;DHT22;12115;47.128;15.422;2023-03-14T10:17:11;14.50;99.90
23869;DHT22;12115;47.128;15.422;2023-03-14T10:19:56;14.60;99.90
23869;DHT22;12115;47.128;15.422;2023-03-14T10:22:31;14.50;99.90
23869;DHT22;12115;47.128;15.422;2023-03-14T10:25:31;14.70;99.90
23869;DHT22;12115;47.128;15.422;2023-03-14T10:27:59;15.00;99.90
23869;DHT22;12115;47.128;15.422;2023-03-14T10:33:08;15.20;99.90
23869;DHT22;12115;47.128;15.422;2023-03-14T10:36:03;15.30;99.90
23869;DHT22;12115;47.128;15.422;2023-03-14T10:38:34;15.40;99.90
23869;DHT22;12115;47.128;15.422;2023-03-14T10:43:52;15.60;99.90
23869;DHT22;12115;47.128;15.422;2023-03-14T10:46:23;15.70;99.90
23869;DHT22;12115;47.128;15.422;2023-03-14T10:49:30;15.70;99.90
23869;DHT22;12115;47.128;15.422;2023-03-14T10:52:27;15.70;99.90
23869;DHT22;12115;47.128;15.422;2023-03-14T10:55:12;15.60;99.90
23869;DHT22;12115;47.128;15.422;2023-03-14T10:57:40;15.60;99.90
23869;DHT22;12115;47.128;15.422;2023-03-14T11:00:20;15.60;99.90
23869;DHT22;12115;47.128;15.422;2023-03-14T11:03:14;15.50;99.90
23869;DHT22;12115;47.128;15.422;2023-03-14T11:11:29;15.30;99.90
23869;DHT22;12115;47.128;15.422;2023-03-14T11:17:02;15.30;99.90
23869;DHT22;12115;47.128;15.422;2023-03-14T11:19:42;15.30;99.90
23869;DHT22;12115;47.128;15.422;2023-03-14T11:22:39;15.40;99.90
23869;DHT22;12115;47.128;15.422;2023-03-14T11:28:00;15.40;98.90
23869;DHT22;12115;47.128;15.422;2023-03-14T11:30:54;15.40;97.30
23869;DHT22;12115;47.128;15.422;2023-03-14T11:33:38;15.40;96.60
23869;DHT22;12115;47.128;15.422;2023-03-14T11:36:31;15.40;96.30
23869;DHT22;12115;47.128;15.422;2023-03-14T11:39:02;15.50;96.20
23869;DHT22;12115;47.128;15.422;2023-03-14T11:41:39;15.50;95.10
23869;DHT22;12115;47.128;15.422;2023-03-14T11:44:39;15.50;96.10
23869;DHT22;12115;47.128;15.422;2023-03-14T11:47:17;15.50;96.20
23869;DHT22;12115;47.128;15.422;2023-03-14T11:50:12;15.50;95.00
23869;DHT22;12115;47.128;15.422;2023-03-14T11:55:35;15.50;96.10
23869;DHT22;12115;47.128;15.422;2023-03-14T12:00:40;15.50;95.90
23869;DHT22;12115;47.128;15.422;2023-03-14T12:09:22;15.50;94.80
23869;DHT22;12115;47.128;15.422;2023-03-14T12:11:56;15.40;94.80
23869;DHT22;12115;47.128;15.422;2023-03-14T12:14:38;15.40;93.40
23869;DHT22;12115;47.128;15.422;2023-03-14T12:17:40;15.40;93.10
23869;DHT22;12115;47.128;15.422;2023-03-14T12:20:16;15.50;92.80
23869;DHT22;12115;47.128;15.422;2023-03-14T12:23:15;15.60;93.70
23869;DHT22;12115;47.128;15.422;2023-03-14T12:25:43;15.70;92.90
23869;DHT22;12115;47.128;15.422;2023-03-14T12:30:48;15.70;92.60
23869;DHT22;12115;47.128;15.422;2023-03-14T12:33:19;15.80;92.30
23869;DHT22;12115;47.128;15.422;2023-03-14T12:41:42;15.70;92.90
23869;DHT22;12115;47.128;15.422;2023-03-14T12:47:00;15.50;92.40
23869;DHT22;12115;47.128;15.422;2023-03-14T12:49:41;15.50;92.70
23869;DHT22;12115;47.128;15.422;2023-03-14T12:55:45;15.50;92.20
23869;DHT22;12115;47.128;15.422;2023-03-14T13:01:18;15.50;92.10
23869;DHT22;12115;47.128;15.422;2023-03-14T13:03:52;15.50;92.00
23869;DHT22;12115;47.128;15.422;2023-03-14T13:12:14;15.40;92.40
23869;DHT22;12115;47.128;15.422;2023-03-14T13:14:46;15.40;92.20
23869;DHT22;12115;47.128;15.422;2023-03-14T13:17:18;15.40;92.20
23869;DHT22;12115;47.128;15.422;2023-03-14T13:20:10;15.40;92.50
23869;DHT22;12115;47.128;15.422;2023-03-14T13:22:38;15.40;92.10
23869;DHT22;12115;47.128;15.422;2023-03-14T13:25:12;15.30;92.00
23869;DHT22;12115;47.128;15.422;2023-03-14T13:27:40;15.30;91.80
23869;DHT22;12115;47.128;15.422;2023-03-14T13:30:27;15.20;91.70
23869;DHT22;12115;47.128;15.422;2023-03-14T13:32:55;15.20;91.90
23869;DHT22;12115;47.128;15.422;2023-03-14T13:35:56;15.20;92.30
23869;DHT22;12115;47.128;15.422;2023-03-14T13:38:26;15.20;91.60
23869;DHT22;12115;47.128;15.422;2023-03-14T13:40:57;15.20;92.30
23869;DHT22;12115;47.128;15.422;2023-03-14T13:43:36;15.20;92.00
23869;DHT22;12115;47.128;15.422;2023-03-14T13:46:22;15.10;92.30
23869;DHT22;12115;47.128;15.422;2023-03-14T13:48:58;15.00;92.90
23869;DHT22;12115;47.128;15.422;2023-03-14T13:51:27;15.00;93.20
23869;DHT22;12115;47.128;15.422;2023-03-14T13:53:59;14.90;93.30
23869;DHT22;12115;47.128;15.422;2023-03-14T13:56:30;14.90;93.70
23869;DHT22;12115;47.128;15.422;2023-03-14T13:59:24;14.90;93.90
23869;DHT22;12115;47.128;15.422;2023-03-14T14:01:53;14.90;94.10
23869;DHT22;12115;47.128;15.422;2023-03-14T14:04:23;14.80;93.80
23869;DHT22;12115;47.128;15.422;2023-03-14T14:06:57;14.80;94.10
23869;DHT22;12115;47.128;15.422;2023-03-14T14:09:28;14.80;94.20
23869;DHT22;12115;47.128;15.422;2023-03-14T14:12:02;14.80;94.20
23869;DHT22;12115;47.128;15.422;2023-03-14T14:14:52;14.70;94.40
23869;DHT22;12115;47.128;15.422;2023-03-14T14:17:58;14.70;94.40
23869;DHT22;12115;47.128;15.422;2023-03-14T14:20:30;14.70;94.60
23869;DHT22;12115;47.128;15.422;2023-03-14T14:23:09;14.60;94.60
23869;DHT22;12115;47.128;15.422;2023-03-14T14:25:37;14.60;94.80
23869;DHT22;12115;47.128;15.422;2023-03-14T14:30:42;14.60;95.00
23869;DHT22;12115;47.128;15.422;2023-03-14T14:33:19;14.60;94.90
23869;DHT22;12115;47.128;15.422;2023-03-14T14:35:58;14.60;95.10
23869;DHT22;12115;47.128;15.422;2023-03-14T14:38:28;14.60;95.10
23869;DHT22;12115;47.128;15.422;2023-03-14T14:41:01;14.70;95.20
23869;DHT22;12115;47.128;15.422;2023-03-14T14:43:32;14.70;94.80
23869;DHT22;12115;47.128;15.422;2023-03-14T14:46:06;14.70;94.80
23869;DHT22;12115;47.128;15.422;2023-03-14T14:48:38;14.70;94.70
23869;DHT22;12115;47.128;15.422;2023-03-14T14:51:07;14.70;94.80
23869;DHT22;12115;47.128;15.422;2023-03-14T14:53:43;14.70;95.00
23869;DHT22;12115;47.128;15.422;2023-03-14T14:56:18;14.70;95.10
23869;DHT22;12115;47.128;15.422;2023-03-14T14:58:48;14.70;94.90
23869;DHT22;12115;47.128;15.422;2023-03-14T15:01:21;14.70;94.80
23869;DHT22;12115;47.128;15.422;2023-03-14T15:03:53;14.70;94.80
23869;DHT22;12115;47.128;15.422;2023-03-14T15:06:28;14.70;94.90
23869;DHT22;12115;47.128;15.422;2023-03-14T15:08:57;14.70;94.70
23869;DHT22;12115;47.128;15.422;2023-03-14T15:11:26;14.70;94.70
23869;DHT22;12115;47.128;15.422;2023-03-14T15:13:53;14.70;94.70
23869;DHT22;12115;47.128;15.422;2023-03-14T15:16:25;14.80;94.70
23869;DHT22;12115;47.128;15.422;2023-03-14T15:18:56;14.80;94.80
23869;DHT22;12115;47.128;15.422;2023-03-14T15:21:26;14.80;94.60
23869;DHT22;12115;47.128;15.422;2023-03-14T15:24:09;14.80;94.80
23869;DHT22;12115;47.128;15.422;2023-03-14T15:26:37;14.80;95.40
23869;DHT22;12115;47.128;15.422;2023-03-14T15:29:05;14.80;95.00
23869;DHT22;12115;47.128;15.422;2023-03-14T15:31:47;14.80;95.30
23869;DHT22;12115;47.128;15.422;2023-03-14T15:35:03;14.80;95.60
23869;DHT22;12115;47.128;15.422;2023-03-14T15:37:31;14.80;94.90
23869;DHT22;12115;47.128;15.422;2023-03-14T15:39:58;14.70;94.40
23869;DHT22;12115;47.128;15.422;2023-03-14T15:42:25;14.70;94.40
23869;DHT22;12115;47.128;15.422;2023-03-14T15:44:52;14.70;94.30
23869;DHT22;12115;47.128;15.422;2023-03-14T15:47:21;14.70;94.00
23869;DHT22;12115;47.128;15.422;2023-03-14T15:49:49;14.70;94.00
23869;DHT22;12115;47.128;15.422;2023-03-14T15:52:16;14.70;94.10
23869;DHT22;12115;47.128;15.422;2023-03-14T15:54:43;14.70;94.40
23869;DHT22;12115;47.128;15.422;2023-03-14T15:57:11;14.50;95.10
23869;DHT22;12115;47.128;15.422;2023-03-14T15:59:38;14.50;95.50
23869;DHT22;12115;47.128;15.422;2023-03-14T16:02:08;14.50;95.60
23869;DHT22;12115;47.128;15.422;2023-03-14T16:04:35;14.50;95.80
23869;DHT22;12115;47.128;15.422;2023-03-14T16:07:03;14.50;96.00
23869;DHT22;12115;47.128;15.422;2023-03-14T16:09:30;14.40;96.40
23869;DHT22;12115;47.128;15.422;2023-03-14T16:11:58;14.30;96.60
23869;DHT22;12115;47.128;15.422;2023-03-14T16:14:25;14.30;96.70
23869;DHT22;12115;47.128;15.422;2023-03-14T16:16:53;14.30;96.70
23869;DHT22;12115;47.128;15.422;2023-03-14T16:19:25;14.20;96.50
23869;DHT22;12115;47.128;15.422;2023-03-14T16:21:58;14.20;96.50
23869;DHT22;12115;47.128;15.422;2023-03-14T16:24:25;14.20;96.50
23869;DHT22;12115;47.128;15.422;2023-03-14T16:26:52;14.20;96.40
23869;DHT22;12115;47.128;15.422;2023-03-14T16:29:24;14.10;96.50
23869;DHT22;12115;47.128;15.422;2023-03-14T16:31:52;14.00;96.70
23869;DHT22;12115;47.128;15.422;2023-03-14T16:34:22;14.00;96.80
23869;DHT22;12115;47.128;15.422;2023-03-14T16:36:50;14.00;96.60
23869;DHT22;12115;47.128;15.422;2023-03-14T16:39:19;14.00;96.70
23869;DHT22;12115;47.128;15.422;2023-03-14T16:41:47;13.90;96.70
23869;DHT22;12115;47.128;15.422;2023-03-14T16:44:14;13.90;96.60
23869;DHT22;12115;47.128;15.422;2023-03-14T16:46:42;13.90;96.60
23869;DHT22;12115;47.128;15.422;2023-03-14T16:49:09;13.90;96.70
23869;DHT22;12115;47.128;15.422;2023-03-14T16:51:37;13.90;96.80
23869;DHT22;12115;47.128;15.422;2023-03-14T16:54:05;13.80;96.90
23869;DHT22;12115;47.128;15.422;2023-03-14T16:56:32;13.80;96.50
23869;DHT22;12115;47.128;15.422;2023-03-14T16:59:00;13.70;96.50
23869;DHT22;12115;47.128;15.422;2023-03-14T17:01:28;13.60;96.70
23869;DHT22;12115;47.128;15.422;2023-03-14T17:03:56;13.60;96.70
23869;DHT22;12115;47.128;15.422;2023-03-14T17:06:25;13.50;96.80
23869;DHT22;12115;47.128;15.422;2023-03-14T17:08:55;13.40;96.90
23869;DHT22;12115;47.128;15.422;2023-03-14T17:11:39;13.30;97.00
23869;DHT22;12115;47.128;15.422;2023-03-14T17:14:06;13.30;97.00
23869;DHT22;12115;47.128;15.422;2023-03-14T17:16:34;13.30;97.00
23869;DHT22;12115;47.128;15.422;2023-03-14T17:19:03;13.20;97.00